SCIP

Mataveri Airport

Isla De Pascua, Chile
METAR SCIP 160800Z 10006KT 9999 SCT020 20/16 Q1025 NOSIG
Observed Flight Rules
Dec-16 @ 08:00 UTC (57 minutes ago) Visual Flight Rules
Wind Visibility Clouds
100° at 6 knots 10,000+ meters
  • Scattered at 2,000' AGL
Temperatures Readings
Current 20°C / 68°F
Dewpoint 16°C / 61°F
Humidity 78%
Altimeter 30.27" Hg
Pressure 1025 hPa
Elevation 69
METAR SCIP 160800Z 10006KT 9999 SCT020 20/16 Q1025 NOSIG
Observed Flight Rules
Dec-16 @ 08:00 UTC
(57 minutes ago)
VFR
Wind Visibility
100° at 6 knots 10,000+ meters
Clouds
  • Scattered at 2,000' AGL
Temperature Dewpoint
20°C / 68°F 16°C / 61°F
Humidity Altimeter Pressure
78% 30.27" Hg 1025 hPa